Time;durP1;ratioP1;P1;durP2;ratioP2;P2;SDS_P1;SDS_P2;PMS_P1;PMS_P2;Temp;Humidity;BMP_temperature;BMP_pressure;BME280_temperature;BME280_humidity;BME280_pressure;Samples;Min_cycle;Max_cycle;Signal;HPM_P1;HPM_P2
2023/05/11 00:01:18;;;;;;;3.90;2.20;;;;;;;10.42;35.37;101094.75;105573;277;38513;-71
2023/05/11 00:03:56;;;;;;;3.40;2.40;;;;;;;10.41;35.31;101094.42;105273;277;38670;-72
2023/05/11 00:06:31;;;;;;;4.80;2.70;;;;;;;10.40;35.29;101097.94;105418;277;174345;-72
2023/05/11 00:09:08;;;;;;;3.60;2.10;;;;;;;10.39;35.24;101097.95;105934;277;40254;-71
2023/05/11 00:11:48;;;;;;;2.50;1.90;;;;;;;10.40;35.11;101091.65;105534;277;39419;-69
2023/05/11 00:14:23;;;;;;;3.80;2.10;;;;;;;10.40;34.96;101086.95;105397;278;38565;-72
2023/05/11 00:17:02;;;;;;;2.70;1.90;;;;;;;10.39;35.00;101088.70;105961;277;38670;-72
2023/05/11 00:19:37;;;;;;;4.10;2.10;;;;;;;10.37;34.90;101093.47;105920;277;39897;-71
2023/05/11 00:22:16;;;;;;;3.30;2.00;;;;;;;10.35;34.88;101089.16;105543;277;38631;-71
2023/05/11 00:24:52;;;;;;;3.90;2.20;;;;;;;10.33;34.92;101092.36;105540;277;38274;-70
2023/05/11 00:27:28;;;;;;;5.00;2.10;;;;;;;10.30;34.86;101091.90;105545;277;38468;-71
2023/05/11 00:30:06;;;;;;;3.60;2.20;;;;;;;10.28;34.79;101092.13;105511;277;38606;-71
2023/05/11 00:32:43;;;;;;;2.80;1.70;;;;;;;10.26;34.72;101091.81;105553;277;38311;-71
2023/05/11 00:35:21;;;;;;;3.70;2.00;;;;;;;10.23;34.78;101094.84;105545;277;38393;-71
2023/05/11 00:38:01;;;;;;;4.00;2.00;;;;;;;10.20;34.83;101094.03;105553;277;38496;-71
2023/05/11 00:40:39;;;;;;;3.30;2.10;;;;;;;10.17;34.84;101094.80;105551;277;39985;-72
2023/05/11 00:43:19;;;;;;;3.10;2.20;;;;;;;10.13;34.99;101092.13;105550;277;38802;-71
2023/05/11 00:45:53;;;;;;;4.50;2.20;;;;;;;10.09;34.95;101092.75;105540;277;38540;-71
2023/05/11 00:48:32;;;;;;;3.90;2.20;;;;;;;10.04;35.05;101091.12;105531;277;38498;-71
2023/05/11 00:51:07;;;;;;;3.80;2.20;;;;;;;10.00;35.14;101089.99;105987;277;38835;-71
2023/05/11 00:53:42;;;;;;;3.40;2.00;;;;;;;9.96;35.25;101089.58;105605;277;38257;-71
2023/05/11 00:56:18;;;;;;;4.90;2.20;;;;;;;9.93;35.26;101089.65;105952;277;40124;-70
2023/05/11 00:58:52;;;;;;;4.60;2.00;;;;;;;9.90;35.28;101085.88;105958;277;38483;-71
2023/05/11 01:01:26;;;;;;;2.60;2.00;;;;;;;9.88;35.43;101085.05;105964;277;38494;-71
2023/05/11 01:04:01;;;;;;;4.40;2.30;;;;;;;9.87;35.37;101085.25;105553;277;38631;-70
2023/05/11 01:06:45;;;;;;;3.10;2.20;;;;;;;9.86;35.43;101081.09;105584;277;39007;-70
2023/05/11 01:09:31;;;;;;;4.50;2.00;;;;;;;9.84;35.53;101081.14;105551;277;38486;-71
2023/05/11 01:12:14;;;;;;;2.40;2.00;;;;;;;9.83;35.46;101081.34;105614;277;39637;-71
2023/05/11 01:14:58;;;;;;;4.90;2.30;;;;;;;9.82;35.46;101080.13;105592;277;38785;-71
2023/05/11 01:17:40;;;;;;;2.50;2.00;;;;;;;9.78;35.65;101078.14;105603;277;38508;-71
2023/05/11 01:20:26;;;;;;;2.80;2.00;;;;;;;9.75;35.67;101082.05;105620;277;39589;-71
2023/05/11 01:23:39;;;;;;;4.40;2.10;;;;;;;9.70;35.70;101082.15;105365;277;38252;-71
2023/05/11 01:26:39;;;;;;;2.80;2.10;;;;;;;9.65;35.87;101081.58;105375;277;39631;-70
2023/05/11 01:29:58;;;;;;;2.50;2.00;;;;;;;9.62;35.90;101082.36;105292;279;38225;-70
2023/05/11 01:32:35;;;;;;;;;;;;;;;9.55;36.11;101080.23;105961;277;38464;-70
2023/05/11 01:35:15;;;;;;;3.10;2.20;;;;;;;9.46;36.48;101083.08;105570;277;39623;-70
2023/05/11 01:37:50;;;;;;;4.00;2.10;;;;;;;9.41;36.57;101080.02;104866;278;752916;-70
2023/05/11 01:40:28;;;;;;;4.00;2.60;;;;;;;9.35;36.66;101080.16;105594;277;39447;-70
2023/05/11 01:43:06;;;;;;;2.40;2.10;;;;;;;9.29;36.89;101076.30;105678;277;38798;-71
2023/05/11 01:45:43;;;;;;;3.90;2.10;;;;;;;9.23;37.23;101077.27;105635;277;40799;-71
2023/05/11 01:48:25;;;;;;;6.00;2.80;;;;;;;9.18;37.06;101079.64;105609;277;39550;-71
2023/05/11 01:51:03;;;;;;;3.30;2.30;;;;;;;9.14;37.31;101078.00;105621;277;39048;-71
2023/05/11 01:53:43;;;;;;;3.70;2.30;;;;;;;9.10;37.36;101080.88;105626;277;39563;-71
2023/05/11 01:56:21;;;;;;;4.30;2.50;;;;;;;9.04;37.49;101078.72;105561;277;39074;-72
2023/05/11 01:59:00;;;;;;;3.70;2.50;;;;;;;8.99;37.61;101082.84;105926;277;38500;-72
2023/05/11 02:01:34;;;;;;;3.40;2.40;;;;;;;8.92;37.95;101083.13;104915;265;904398;-73
2023/05/11 02:04:10;;;;;;;4.60;2.50;;;;;;;8.86;37.99;101083.61;105987;277;39435;-73
2023/05/11 02:06:47;;;;;;;4.90;2.40;;;;;;;8.80;38.25;101085.28;105571;277;39789;-73
2023/05/11 02:09:22;;;;;;;5.30;2.60;;;;;;;8.76;38.34;101083.79;105580;277;38233;-72
2023/05/11 02:11:57;;;;;;;4.70;2.40;;;;;;;8.71;38.35;101084.23;105624;277;39466;-72
2023/05/11 02:14:32;;;;;;;4.10;2.40;;;;;;;8.67;38.64;101083.27;105929;277;39688;-71
2023/05/11 02:17:10;;;;;;;5.50;2.90;;;;;;;8.62;38.77;101083.54;105916;277;38833;-71
2023/05/11 02:19:47;;;;;;;4.60;2.40;;;;;;;8.56;38.88;101081.38;105648;277;39672;-72
2023/05/11 02:22:22;;;;;;;5.00;2.40;;;;;;;8.51;39.20;101081.30;105975;277;38821;-73
2023/05/11 02:24:57;;;;;;;3.20;2.30;;;;;;;8.46;39.20;101085.23;105648;277;38257;-72
2023/05/11 02:27:34;;;;;;;3.90;2.30;;;;;;;8.42;39.43;101083.73;105965;277;38710;-72
2023/05/11 02:30:11;;;;;;;4.30;2.60;;;;;;;8.36;39.66;101086.42;105585;277;38232;-73
2023/05/11 02:32:52;;;;;;;6.30;2.60;;;;;;;8.28;39.93;101087.07;105300;279;39686;-73
2023/05/11 02:35:32;;;;;;;5.10;2.40;;;;;;;8.20;40.16;101088.41;105963;277;38409;-72
2023/05/11 02:38:07;;;;;;;5.90;2.70;;;;;;;8.12;40.49;101094.13;105585;277;38500;-71
2023/05/11 02:40:45;;;;;;;8.10;2.70;;;;;;;8.04;40.58;101092.49;105584;277;38652;-71
2023/05/11 02:43:24;;;;;;;4.40;2.70;;;;;;;8.01;40.73;101091.52;105378;277;40505;-71
2023/05/11 02:46:02;;;;;;;4.00;2.50;;;;;;;7.98;40.79;101093.63;105580;278;38507;-72
2023/05/11 02:48:43;;;;;;;5.90;2.60;;;;;;;7.95;40.85;101097.33;105570;277;38388;-71
2023/05/11 02:51:21;;;;;;;4.10;2.60;;;;;;;7.93;41.15;101096.16;105899;277;38540;-71
2023/05/11 02:53:56;;;;;;;3.80;2.60;;;;;;;7.91;41.28;101098.45;105600;277;38211;-71
2023/05/11 02:56:31;;;;;;;4.30;2.80;;;;;;;7.89;41.31;101095.01;105908;277;38762;-72
2023/05/11 02:59:11;;;;;;;6.20;2.70;;;;;;;7.89;41.40;101097.09;105557;277;38847;-72
2023/05/11 03:01:46;;;;;;;4.20;2.80;;;;;;;7.88;41.54;101093.63;105590;277;38523;-72
2023/05/11 03:04:24;;;;;;;3.80;2.60;;;;;;;7.86;41.63;101094.88;105832;277;174499;-71
2023/05/11 03:06:58;;;;;;;5.40;2.60;;;;;;;7.84;41.76;101101.51;105579;277;39847;-71
2023/05/11 03:09:35;;;;;;;4.30;2.90;;;;;;;7.83;41.84;101100.48;105576;277;40231;-71
2023/05/11 03:12:10;;;;;;;6.30;2.90;;;;;;;7.83;41.88;101102.73;105304;277;38822;-71
2023/05/11 03:14:49;;;;;;;4.30;2.80;;;;;;;7.83;42.03;101099.77;105652;277;38242;-71
2023/05/11 03:17:32;;;;;;;3.50;2.80;;;;;;;7.84;42.25;101100.30;105614;277;38507;-72
2023/05/11 03:20:17;;;;;;;5.80;2.50;;;;;;;7.85;42.20;101102.71;105970;277;38539;-71
2023/05/11 03:22:55;;;;;;;5.20;2.40;;;;;;;7.86;42.47;101104.60;105606;277;38269;-71
2023/05/11 03:25:31;;;;;;;4.90;2.70;;;;;;;7.88;42.26;101105.26;105547;277;38747;-71
2023/05/11 03:28:08;;;;;;;6.00;3.10;;;;;;;7.90;42.59;101102.63;105636;265;38407;-71
2023/05/11 03:30:50;;;;;;;6.10;3.10;;;;;;;7.93;42.51;101109.20;105606;277;39676;-71
2023/05/11 03:33:30;;;;;;;5.70;2.90;;;;;;;7.95;42.65;101109.15;105611;277;39916;-71
2023/05/11 03:36:14;;;;;;;4.40;2.70;;;;;;;7.98;42.79;101110.15;105605;277;39945;-71
2023/05/11 03:38:48;;;;;;;6.30;2.70;;;;;;;8.05;42.88;101110.91;105939;277;38469;-71
2023/05/11 03:41:26;;;;;;;4.60;3.00;;;;;;;8.38;43.30;101112.64;105266;277;904172;-71
2023/05/11 03:44:00;;;;;;;5.40;3.00;;;;;;;9.03;43.37;101111.46;105910;278;39912;-71
2023/05/11 03:46:38;;;;;;;4.90;3.00;;;;;;;9.95;43.50;101110.85;105911;278;39643;-71
2023/05/11 03:49:21;;;;;;;4.10;2.60;;;;;;;11.06;41.87;101114.98;105456;278;38759;-71
2023/05/11 03:51:56;;;;;;;3.60;2.70;;;;;;;12.15;40.50;101106.98;105928;278;39106;-71
2023/05/11 03:54:32;;;;;;;9.00;3.20;;;;;;;13.23;38.70;101111.44;105975;278;39452;-71
2023/05/11 03:57:14;;;;;;;3.50;2.60;;;;;;;14.23;36.97;101108.09;105489;278;38451;-71
2023/05/11 03:59:51;;;;;;;4.50;3.00;;;;;;;15.14;35.15;101110.33;105456;278;38617;-71
2023/05/11 04:02:27;;;;;;;5.30;2.40;;;;;;;16.00;33.69;101109.11;105449;278;38262;-71
2023/05/11 04:05:02;;;;;;;5.20;2.90;;;;;;;16.76;32.49;101108.64;105451;278;38406;-71
2023/05/11 04:07:50;;;;;;;4.40;2.50;;;;;;;17.24;30.73;101112.08;105899;278;39007;-71
2023/05/11 04:10:26;;;;;;;4.90;2.80;;;;;;;16.83;30.03;101113.06;105882;278;39697;-71
2023/05/11 04:13:01;;;;;;;8.10;3.40;;;;;;;16.15;30.16;101113.11;105425;278;39714;-71
2023/05/11 04:15:38;;;;;;;5.80;2.60;;;;;;;15.47;30.46;101114.92;105444;278;38524;-71
2023/05/11 04:18:17;;;;;;;4.40;2.50;;;;;;;14.83;31.16;101114.48;105894;278;38875;-71
2023/05/11 04:20:50;;;;;;;;;;;;;;;14.35;31.70;101118.45;105494;278;38283;-72
2023/05/11 04:23:39;;;;;;;4.20;2.60;;;;;;;13.93;32.10;101114.74;105914;279;38538;-71
2023/05/11 04:26:17;;;;;;;4.00;2.90;;;;;;;13.56;32.66;101119.86;105431;278;38810;-71
2023/05/11 04:28:53;;;;;;;4.80;2.70;;;;;;;13.21;33.11;101123.99;105910;278;38519;-72
2023/05/11 04:31:30;;;;;;;5.80;2.80;;;;;;;12.89;33.35;101124.23;105445;278;38361;-71
2023/05/11 04:34:07;;;;;;;4.50;2.80;;;;;;;12.63;33.79;101120.09;105475;278;39427;-71
2023/05/11 04:36:45;;;;;;;5.20;2.70;;;;;;;12.45;34.24;101124.20;105900;278;38391;-72
2023/05/11 04:39:20;;;;;;;3.80;2.40;;;;;;;12.36;34.20;101124.84;105295;278;38506;-71
2023/05/11 04:41:54;;;;;;;6.90;3.00;;;;;;;12.29;34.59;101123.85;105453;278;38380;-70
2023/05/11 04:44:36;;;;;;;5.60;2.60;;;;;;;12.25;34.74;101125.73;105913;279;38828;-71
2023/05/11 04:47:10;;;;;;;4.70;2.40;;;;;;;12.40;35.08;101123.65;105453;278;38310;-71
2023/05/11 04:49:45;;;;;;;5.90;2.60;;;;;;;13.08;35.11;101122.15;105444;278;39820;-72
2023/05/11 04:52:20;;;;;;;6.10;2.60;;;;;;;14.43;35.48;101120.58;105353;278;174090;-72
2023/05/11 04:54:56;;;;;;;4.80;2.50;;;;;;;16.08;33.44;101115.23;105443;278;38654;-73
2023/05/11 04:57:30;;;;;;;5.10;2.50;;;;;;;17.54;30.82;101115.77;105461;278;38865;-73
2023/05/11 05:00:12;;;;;;;4.40;2.60;;;;;;;18.61;28.86;101109.42;105478;278;38457;-73
2023/05/11 05:02:52;;;;;;;4.90;2.30;;;;;;;19.82;27.34;101115.73;105458;278;38452;-72
2023/05/11 05:05:26;;;;;;;3.60;2.40;;;;;;;20.97;26.04;101115.69;105455;278;38366;-73
2023/05/11 05:08:04;;;;;;;3.80;2.80;;;;;;;21.96;24.71;101109.86;105942;278;38524;-71
2023/05/11 05:10:39;;;;;;;3.70;3.10;;;;;;;22.64;22.91;101110.58;105474;278;38204;-71
2023/05/11 05:13:17;;;;;;;5.70;2.90;;;;;;;23.11;22.14;101112.46;105477;278;38263;-73
2023/05/11 05:16:01;;;;;;;3.90;2.70;;;;;;;23.54;21.64;101116.32;105473;278;38809;-73
2023/05/11 05:18:45;;;;;;;3.40;2.70;;;;;;;24.06;21.52;101113.73;105481;279;38969;-73
2023/05/11 05:21:33;;;;;;;3.50;2.80;;;;;;;24.61;20.89;101118.24;105493;278;38310;-74
2023/05/11 05:24:12;;;;;;;3.30;2.70;;;;;;;25.12;20.03;101114.14;105471;278;38423;-73
2023/05/11 05:26:48;;;;;;;3.20;2.70;;;;;;;25.32;19.65;101119.04;105461;278;39688;-73
2023/05/11 05:29:23;;;;;;;6.50;2.40;;;;;;;25.65;19.32;101117.33;105934;278;38224;-74
2023/05/11 05:31:59;;;;;;;3.90;2.30;;;;;;;26.00;18.64;101118.30;105466;278;39284;-74
2023/05/11 05:34:35;;;;;;;10.90;2.60;;;;;;;26.29;18.42;101115.98;105426;278;38295;-73
2023/05/11 05:37:10;;;;;;;8.00;2.50;;;;;;;26.62;18.20;101119.52;105942;278;38273;-73
2023/05/11 05:39:51;;;;;;;4.10;2.30;;;;;;;26.73;17.48;101120.08;105964;278;39503;-73
2023/05/11 05:42:32;;;;;;;5.30;2.40;;;;;;;26.74;17.39;101120.00;105467;278;38514;-73
2023/05/11 05:45:11;;;;;;;4.30;2.40;;;;;;;26.78;17.19;101120.91;105483;278;39551;-74
2023/05/11 05:47:54;;;;;;;4.40;2.10;;;;;;;27.11;17.41;101128.09;105474;278;38240;-74
2023/05/11 05:50:35;;;;;;;4.20;2.70;;;;;;;27.43;17.08;101130.27;105468;278;38230;-73
2023/05/11 05:53:11;;;;;;;3.90;2.50;;;;;;;27.76;16.69;101130.78;105476;278;38318;-73
2023/05/11 05:55:45;;;;;;;3.50;2.30;;;;;;;28.11;16.33;101126.23;105957;278;38842;-73
2023/05/11 05:58:30;;;;;;;3.80;2.20;;;;;;;28.34;16.71;101127.55;105486;278;39636;-73
2023/05/11 06:01:05;;;;;;;4.90;2.20;;;;;;;28.59;16.03;101127.37;105958;278;38409;-73
2023/05/11 06:03:43;;;;;;;2.40;2.00;;;;;;;28.86;15.76;101120.94;105937;278;39678;-73
2023/05/11 06:06:19;;;;;;;5.10;2.30;;;;;;;29.08;15.41;101122.27;105440;278;39226;-73
2023/05/11 06:08:54;;;;;;;2.50;1.90;;;;;;;29.21;14.99;101121.65;105317;278;173376;-73
2023/05/11 06:11:29;;;;;;;4.60;2.30;;;;;;;29.25;15.16;101123.77;105942;278;38603;-73
2023/05/11 06:14:05;;;;;;;2.80;2.10;;;;;;;29.67;14.95;101126.85;105462;278;39414;-73
2023/05/11 06:16:39;;;;;;;4.90;2.60;;;;;;;30.07;14.45;101129.33;105491;278;39391;-73
2023/05/11 06:19:14;;;;;;;5.20;2.10;;;;;;;30.37;14.53;101127.55;105464;278;38324;-74
2023/05/11 06:21:48;;;;;;;4.40;2.50;;;;;;;30.57;13.94;101132.30;105920;278;39027;-74
2023/05/11 06:24:23;;;;;;;3.70;2.10;;;;;;;30.61;13.82;101128.24;105818;278;170865;-74
2023/05/11 06:26:59;;;;;;;5.00;2.30;;;;;;;30.83;13.66;101131.39;105279;278;39539;-74
2023/05/11 06:29:43;;;;;;;5.10;2.10;;;;;;;30.95;13.19;101130.20;105935;278;38348;-74
2023/05/11 06:32:17;;;;;;;3.30;1.90;;;;;;;30.57;13.40;101129.94;105487;278;39564;-74
2023/05/11 06:34:55;;;;;;;4.10;2.10;;;;;;;30.78;13.81;101134.90;105953;278;38291;-74
2023/05/11 06:37:46;;;;;;;3.40;2.00;;;;;;;30.89;13.04;101133.96;105445;278;38365;-74
2023/05/11 06:40:25;;;;;;;3.80;1.80;;;;;;;30.74;13.30;101136.93;105954;278;38621;-74
2023/05/11 06:43:00;;;;;;;2.70;1.90;;;;;;;30.66;13.20;101142.08;105476;278;38555;-74
2023/05/11 06:45:40;;;;;;;3.60;2.00;;;;;;;30.50;12.73;101141.52;105460;278;39556;-74
2023/05/11 06:48:24;;;;;;;5.40;2.00;;;;;;;30.26;13.18;101140.21;105460;278;38221;-74
2023/05/11 06:51:00;;;;;;;4.10;2.10;;;;;;;30.09;13.49;101139.23;105269;278;41087;-73
2023/05/11 06:53:42;;;;;;;2.60;1.80;;;;;;;30.26;13.52;101139.70;105497;278;38218;-73
2023/05/11 06:56:21;;;;;;;3.30;2.10;;;;;;;30.25;13.24;101141.38;105901;275;38297;-73
2023/05/11 06:58:57;;;;;;;3.70;2.10;;;;;;;30.17;13.23;101138.20;105459;278;39440;-75
2023/05/11 07:01:35;;;;;;;3.20;1.80;;;;;;;30.21;13.52;101140.69;105276;279;38355;-74
2023/05/11 07:04:14;;;;;;;2.40;1.80;;;;;;;30.10;12.91;101141.27;105307;279;38372;-75
2023/05/11 07:06:52;;;;;;;4.80;1.70;;;;;;;29.94;12.98;101141.79;105254;280;38838;-76
2023/05/11 07:09:27;;;;;;;9.50;2.00;;;;;;;29.89;12.97;101146.77;105885;278;38817;-73
2023/05/11 07:12:04;;;;;;;3.10;2.00;;;;;;;29.69;12.81;101146.04;105423;278;38259;-73
2023/05/11 07:14:44;;;;;;;3.00;1.80;;;;;;;29.55;12.62;101144.29;105402;278;38309;-73
2023/05/11 07:17:21;;;;;;;2.90;1.40;;;;;;;29.44;12.48;101148.66;105436;278;38422;-73
2023/05/11 07:19:57;;;;;;;4.80;1.40;;;;;;;29.47;12.85;101138.82;105418;278;38483;-75
2023/05/11 07:22:33;;;;;;;3.40;1.50;;;;;;;29.69;12.56;101137.98;105448;279;38410;-75
2023/05/11 07:25:11;;;;;;;1.80;1.50;;;;;;;29.68;12.79;101136.43;105296;279;40472;-73
2023/05/11 07:27:49;;;;;;;2.40;1.50;;;;;;;29.84;12.69;101131.34;105443;283;39958;-73
2023/05/11 07:30:28;;;;;;;2.10;1.60;;;;;;;30.14;12.54;101127.90;105266;278;39440;-74
2023/05/11 07:33:08;;;;;;;2.50;1.50;;;;;;;30.44;12.59;101124.02;105443;278;39155;-74
2023/05/11 07:35:46;;;;;;;3.00;1.40;;;;;;;30.57;11.86;101127.51;105479;278;38063;-75
2023/05/11 07:38:21;;;;;;;9.80;1.50;;;;;;;30.23;11.26;101136.42;105447;278;39591;-74
2023/05/11 07:40:57;;;;;;;5.00;1.70;;;;;;;29.76;11.27;101138.06;105451;278;38383;-74
2023/05/11 07:43:33;;;;;;;3.50;1.50;;;;;;;29.32;11.36;101142.96;105427;278;38240;-74
2023/05/11 07:46:09;;;;;;;2.60;1.40;;;;;;;29.09;11.58;101134.06;105458;278;38369;-74
2023/05/11 07:48:45;;;;;;;5.20;1.60;;;;;;;28.99;11.79;101134.21;105845;279;38759;-73
2023/05/11 07:51:23;;;;;;;4.60;1.50;;;;;;;29.06;11.47;101132.05;105422;278;38400;-73
2023/05/11 07:54:00;;;;;;;4.60;1.50;;;;;;;28.73;11.59;101129.80;105442;278;39369;-74
2023/05/11 07:56:36;;;;;;;2.80;1.40;;;;;;;28.45;12.30;101128.94;105255;279;38333;-74
2023/05/11 07:59:11;;;;;;;3.60;1.70;;;;;;;28.49;12.21;101128.00;105434;266;38744;-72
2023/05/11 08:01:50;;;;;;;3.60;1.70;;;;;;;28.52;12.16;101122.05;105425;278;39395;-72
2023/05/11 08:04:44;;;;;;;6.00;1.70;;;;;;;28.37;11.89;101137.59;105428;278;38228;-73
2023/05/11 08:07:27;;;;;;;3.30;1.40;;;;;;;28.12;12.58;101135.63;105457;278;38460;-72
2023/05/11 08:10:01;;;;;;;2.20;1.60;;;;;;;28.10;12.47;101153.50;105455;278;38644;-72
2023/05/11 08:12:47;;;;;;;3.00;1.80;;;;;;;27.87;12.69;101137.77;105474;278;38217;-74
2023/05/11 08:15:21;;;;;;;3.90;1.70;;;;;;;28.30;13.09;101133.27;105459;278;38775;-72
2023/05/11 08:18:01;;;;;;;4.80;2.30;;;;;;;28.76;12.36;101125.75;105476;278;38357;-73
2023/05/11 08:20:40;;;;;;;4.40;1.40;;;;;;;29.02;12.61;101119.86;105897;278;39879;-73
2023/05/11 08:23:17;;;;;;;4.10;1.70;;;;;;;29.61;12.43;101122.07;105422;282;38756;-74
2023/05/11 08:25:58;;;;;;;3.70;1.80;;;;;;;30.09;12.44;101112.81;105404;278;39165;-74
2023/05/11 08:28:34;;;;;;;2.70;1.60;;;;;;;30.52;11.95;101114.38;105911;278;39573;-75
2023/05/11 08:31:09;;;;;;;2.70;1.30;;;;;;;30.75;12.06;101112.91;105425;278;38470;-75
2023/05/11 08:33:47;;;;;;;2.80;1.50;;;;;;;31.07;11.67;101104.23;105506;278;38322;-75
2023/05/11 08:36:20;;;;;;;;;;;;;;;31.48;12.07;101110.17;105478;278;39729;-75
2023/05/11 08:38:59;;;;;;;4.00;1.40;;;;;;;31.64;11.26;101107.12;105493;278;39000;-74
2023/05/11 08:41:35;;;;;;;4.50;1.60;;;;;;;31.73;11.50;101113.55;105434;278;38290;-74
2023/05/11 08:44:10;;;;;;;3.70;1.50;;;;;;;31.75;11.21;101113.33;105437;278;39641;-75
2023/05/11 08:46:50;;;;;;;3.10;1.60;;;;;;;31.62;11.24;101109.08;105447;278;39640;-76
2023/05/11 08:49:27;;;;;;;4.10;1.70;;;;;;;31.50;11.11;101110.86;105429;278;39447;-75
2023/05/11 08:52:04;;;;;;;3.60;1.60;;;;;;;31.39;11.63;101103.39;105458;278;39441;-75
2023/05/11 08:54:40;;;;;;;2.20;1.40;;;;;;;31.32;11.07;101110.39;105494;278;38732;-74
2023/05/11 08:57:18;;;;;;;3.70;1.20;;;;;;;30.79;11.19;101098.05;105433;278;39240;-75
2023/05/11 09:00:02;;;;;;;3.00;1.40;;;;;;;30.73;11.57;101102.06;105437;278;38546;-74
2023/05/11 09:02:38;;;;;;;3.00;1.50;;;;;;;30.78;11.34;101100.52;105769;278;173758;-74
2023/05/11 09:05:24;;;;;;;3.20;1.30;;;;;;;30.49;11.11;101110.54;105229;279;38298;-73
2023/05/11 09:08:02;;;;;;;2.00;1.30;;;;;;;30.25;11.35;101103.81;105413;278;39633;-73
2023/05/11 09:10:42;;;;;;;2.30;1.30;;;;;;;30.21;11.52;101100.85;105237;279;38810;-74
2023/05/11 09:13:16;;;;;;;3.00;1.70;;;;;;;29.79;11.56;101102.46;105400;278;39959;-74
2023/05/11 09:15:52;;;;;;;3.80;1.40;;;;;;;29.39;12.26;101100.87;105896;278;38328;-74
2023/05/11 09:18:28;;;;;;;5.10;1.70;;;;;;;28.69;12.04;101106.70;105248;279;38805;-75
2023/05/11 09:21:03;;;;;;;2.30;1.40;;;;;;;27.91;12.79;101111.06;105408;278;39306;-74
2023/05/11 09:23:39;;;;;;;1.90;1.40;;;;;;;27.36;13.17;101106.22;105448;279;38746;-74
2023/05/11 09:26:28;;;;;;;3.00;1.40;;;;;;;27.03;13.64;101110.08;105266;279;39150;-74
2023/05/11 09:29:04;;;;;;;3.10;1.40;;;;;;;26.62;14.22;101104.55;105852;278;38287;-73
2023/05/11 09:31:44;;;;;;;4.40;1.40;;;;;;;26.30;14.07;101108.56;105375;278;38488;-73
2023/05/11 09:34:20;;;;;;;4.80;1.50;;;;;;;25.78;14.65;101101.17;105149;279;173758;-74
2023/05/11 09:36:59;;;;;;;3.10;1.60;;;;;;;25.55;15.21;101094.23;104601;279;1009731;-73
2023/05/11 09:39:41;;;;;;;3.70;1.50;;;;;;;25.47;15.68;101090.89;105381;278;39646;-73
2023/05/11 09:42:23;;;;;;;1.70;1.60;;;;;;;25.31;15.34;101108.92;105853;278;38289;-73
2023/05/11 09:44:58;;;;;;;3.50;1.50;;;;;;;24.90;15.43;101108.42;105289;278;173748;-74
2023/05/11 09:47:46;;;;;;;5.70;1.70;;;;;;;24.59;15.46;101101.43;105412;278;38597;-74
2023/05/11 09:50:27;;;;;;;2.60;1.50;;;;;;;24.26;15.99;101098.65;105871;278;38238;-73
2023/05/11 09:53:08;;;;;;;2.60;1.30;;;;;;;23.98;16.05;101090.30;105443;278;38346;-73
2023/05/11 09:55:51;;;;;;;1.60;1.30;;;;;;;23.67;16.06;101106.39;105420;279;38499;-73
2023/05/11 09:58:28;;;;;;;2.60;1.60;;;;;;;23.26;16.42;101090.08;105427;278;40042;-73
2023/05/11 10:01:04;;;;;;;4.70;1.60;;;;;;;23.07;16.78;101104.41;105405;278;38703;-73
2023/05/11 10:03:49;;;;;;;4.20;1.50;;;;;;;22.92;17.21;101096.67;105255;278;38833;-72
2023/05/11 10:06:24;;;;;;;2.90;1.50;;;;;;;22.83;17.28;101096.10;105435;278;38507;-72
2023/05/11 10:09:00;;;;;;;3.20;1.50;;;;;;;22.71;17.48;101088.38;105921;278;38896;-73
2023/05/11 10:11:37;;;;;;;2.80;1.70;;;;;;;22.60;17.55;101084.42;105413;278;38443;-73
2023/05/11 10:14:24;;;;;;;3.30;1.60;;;;;;;22.54;17.75;101079.47;105469;278;38354;-73
2023/05/11 10:16:59;;;;;;;4.20;1.80;;;;;;;22.45;17.51;101069.39;105455;278;39795;-73
2023/05/11 10:19:40;;;;;;;4.40;1.50;;;;;;;22.16;18.01;101070.66;105439;278;38432;-73
2023/05/11 10:22:15;;;;;;;5.30;1.50;;;;;;;22.05;18.35;101075.20;105421;278;38263;-73
2023/05/11 10:24:53;;;;;;;5.60;1.60;;;;;;;22.10;18.43;101078.08;105182;278;190781;-74
2023/05/11 10:27:28;;;;;;;4.10;2.00;;;;;;;22.11;18.56;101069.09;105264;278;38408;-74
2023/05/11 10:30:14;;;;;;;3.70;1.50;;;;;;;22.19;18.61;101069.02;105317;279;38476;-74
2023/05/11 10:32:52;;;;;;;1.60;1.40;;;;;;;22.24;18.51;101072.23;105263;279;38492;-73
2023/05/11 10:35:35;;;;;;;5.20;1.60;;;;;;;22.15;18.45;101065.09;105258;280;38553;-73
2023/05/11 10:38:12;;;;;;;4.60;1.80;;;;;;;22.04;18.95;101061.94;105468;278;38912;-74
2023/05/11 10:40:47;;;;;;;7.50;1.90;;;;;;;21.96;18.80;101074.31;105231;278;39479;-73
2023/05/11 10:43:48;;;;;;;4.00;1.70;;;;;;;21.86;18.89;101065.64;105463;278;38237;-74
2023/05/11 10:46:40;;;;;;;2.90;1.60;;;;;;;21.91;19.17;101059.20;105473;278;38820;-74
2023/05/11 10:49:51;;;;;;;3.40;1.50;;;;;;;22.05;19.15;101056.77;105440;278;38342;-73
2023/05/11 10:52:57;;;;;;;3.70;1.60;;;;;;;22.18;19.19;101051.67;105448;278;38512;-74
2023/05/11 10:55:41;;;;;;;2.70;1.50;;;;;;;21.95;18.69;101047.39;105303;278;38515;-73
2023/05/11 10:58:20;;;;;;;2.90;1.60;;;;;;;21.80;18.82;101051.70;105938;278;39157;-72
2023/05/11 11:01:32;;;;;;;3.40;1.80;;;;;;;21.63;19.07;101044.23;105476;278;38243;-72
2023/05/11 11:04:08;;;;;;;4.20;1.50;;;;;;;21.57;19.44;101041.70;105442;278;39805;-71
2023/05/11 11:06:52;;;;;;;3.90;1.40;;;;;;;21.54;19.16;101034.23;105354;279;39788;-72
2023/05/11 11:09:28;;;;;;;3.50;1.60;;;;;;;21.52;19.56;101036.73;105816;279;38743;-73
2023/05/11 11:12:12;;;;;;;5.60;1.50;;;;;;;21.53;19.64;101034.16;105352;279;39020;-73
2023/05/11 11:15:06;;;;;;;2.50;1.60;;;;;;;21.45;19.41;101040.60;105305;279;38890;-73
2023/05/11 11:17:42;;;;;;;2.90;1.40;;;;;;;21.27;19.74;101041.55;105404;279;38598;-73
2023/05/11 11:20:47;;;;;;;1.80;1.20;;;;;;;21.07;19.84;101031.05;105354;279;38438;-72
2023/05/11 11:23:48;;;;;;;2.20;1.40;;;;;;;21.04;20.27;101027.89;105342;279;38270;-72
2023/05/11 11:26:52;;;;;;;2.60;1.60;;;;;;;20.97;19.99;101038.69;105371;280;39686;-72
2023/05/11 11:29:32;;;;;;;2.70;1.50;;;;;;;20.84;20.33;101044.20;105365;279;38331;-72
2023/05/11 11:32:29;;;;;;;2.70;1.60;;;;;;;20.80;20.20;101031.93;105245;279;39444;-72
2023/05/11 11:35:09;;;;;;;4.60;1.90;;;;;;;20.83;20.33;101031.33;105325;279;38239;-73
2023/05/11 11:38:28;;;;;;;3.00;1.70;;;;;;;20.81;20.60;101031.32;101648;308;546393;-74
2023/05/11 11:41:05;;;;;;;2.90;1.60;;;;;;;20.79;20.45;101027.39;102935;290;38755;-75
2023/05/11 11:43:54;;;;;;;3.00;1.70;;;;;;;20.77;20.41;101034.45;102910;290;40131;-75
2023/05/11 11:46:33;;;;;;;2.70;1.60;;;;;;;20.75;20.71;101034.75;102296;290;895233;-74
2023/05/11 11:49:14;;;;;;;2.60;1.40;;;;;;;20.74;20.74;101036.09;102864;290;39199;-73
2023/05/11 11:51:51;;;;;;;2.10;1.40;;;;;;;20.68;20.59;101035.26;103129;281;490935;-73
2023/05/11 11:54:44;;;;;;;4.20;1.60;;;;;;;20.62;20.64;101036.73;103558;281;38377;-74
2023/05/11 11:57:50;;;;;;;2.20;1.50;;;;;;;20.49;20.41;101035.63;103419;281;174653;-75
2023/05/11 12:00:26;;;;;;;2.80;1.60;;;;;;;20.32;21.03;101038.42;103532;281;38544;-74
2023/05/11 12:03:03;;;;;;;4.90;1.50;;;;;;;20.24;20.79;101043.23;103554;281;38878;-71
2023/05/11 12:05:38;;;;;;;3.40;1.50;;;;;;;20.08;20.68;101036.14;103401;280;176824;-70
2023/05/11 12:08:14;;;;;;;2.70;1.70;;;;;;;19.97;20.94;101022.67;103575;281;39576;-72
2023/05/11 12:10:55;;;;;;;3.90;1.70;;;;;;;19.92;21.49;101027.83;103543;281;39644;-72
2023/05/11 12:13:29;;;;;;;3.70;1.50;;;;;;;19.88;21.32;101036.57;103745;280;38206;-73
2023/05/11 12:16:21;;;;;;;3.60;1.80;;;;;;;19.82;20.90;101035.78;103725;280;38467;-73
2023/05/11 12:18:56;;;;;;;2.40;1.60;;;;;;;19.71;20.96;101039.66;103519;280;38239;-73
2023/05/11 12:21:40;;;;;;;3.20;1.80;;;;;;;19.60;21.09;101028.16;103645;280;38326;-71
2023/05/11 12:24:15;;;;;;;4.00;1.70;;;;;;;19.56;21.52;101019.33;103672;280;39597;-74